createdAt,value
2022-10-24T03:57:51.750Z,14.10
2022-10-24T04:00:57.072Z,14.15
2022-10-24T04:03:59.619Z,14.24
2022-10-24T04:07:02.019Z,14.15
2022-10-24T04:10:05.934Z,14.06
2022-10-24T04:13:08.243Z,14.07
2022-10-24T04:16:10.786Z,14.12
2022-10-24T04:19:12.862Z,13.95
2022-10-24T04:22:15.235Z,13.89
2022-10-24T04:25:17.766Z,13.87
2022-10-24T04:28:20.058Z,13.84
2022-10-24T04:31:23.634Z,13.88
2022-10-24T04:34:26.225Z,13.89
2022-10-24T04:37:28.305Z,13.96
2022-10-24T04:40:30.594Z,13.93
2022-10-24T04:43:32.689Z,13.93
2022-10-24T04:46:34.981Z,13.92
2022-10-24T04:49:37.005Z,13.95
2022-10-24T04:52:39.550Z,14.00
2022-10-24T04:55:41.615Z,13.85
2022-10-24T04:58:44.148Z,13.84
2022-10-24T05:01:46.333Z,14.05
2022-10-24T05:04:48.704Z,14.10
2022-10-24T05:07:50.745Z,14.25
2022-10-24T05:10:53.048Z,14.05
2022-10-24T05:13:55.077Z,14.08
2022-10-24T05:16:57.353Z,14.18
2022-10-24T05:19:59.425Z,14.05
2022-10-24T05:23:01.709Z,13.93
2022-10-24T05:26:03.903Z,14.00
2022-10-24T05:32:13.258Z,14.18
2022-10-24T05:35:15.661Z,14.17
2022-10-24T05:38:18.278Z,14.26
2022-10-24T05:41:20.672Z,14.04
2022-10-24T05:44:22.925Z,14.14
2022-10-24T05:47:28.391Z,14.12
2022-10-24T05:50:31.505Z,14.18
2022-10-24T05:53:33.870Z,14.32
2022-10-24T05:56:35.903Z,14.17
2022-10-24T05:59:38.205Z,14.00
2022-10-24T06:02:40.712Z,14.02
2022-10-24T06:05:43.238Z,14.09
2022-10-24T06:08:45.303Z,14.02
2022-10-24T06:11:47.950Z,13.94
2022-10-24T06:14:50.194Z,13.87
2022-10-24T06:17:53.252Z,13.82
2022-10-24T06:20:58.967Z,14.10
2022-10-24T06:24:01.318Z,14.16
2022-10-24T06:27:04.879Z,14.15
2022-10-24T06:30:08.079Z,14.11
2022-10-24T06:33:10.266Z,14.02
2022-10-24T06:36:14.296Z,13.95
2022-10-24T06:39:16.362Z,13.92
2022-10-24T06:42:18.662Z,14.08
2022-10-24T06:45:21.835Z,14.23
2022-10-24T06:48:24.299Z,14.06
2022-10-24T06:51:26.370Z,14.01
2022-10-24T06:54:30.347Z,14.06
2022-10-24T06:57:32.770Z,13.97
2022-10-24T07:00:35.576Z,13.93
2022-10-24T07:03:37.926Z,13.92
2022-10-24T07:06:40.666Z,14.06
2022-10-24T07:09:43.349Z,14.20
2022-10-24T07:12:45.998Z,14.17
2022-10-24T07:15:48.450Z,14.19
2022-10-24T07:18:51.072Z,14.16
2022-10-24T07:21:53.125Z,14.19
2022-10-24T07:24:56.117Z,14.17
2022-10-24T07:27:58.178Z,14.32
2022-10-24T07:31:01.657Z,14.39
2022-10-24T07:34:06.705Z,14.40
2022-10-24T07:37:09.091Z,14.40
2022-10-24T07:40:11.695Z,14.30
2022-10-24T07:43:14.770Z,14.18
2022-10-24T07:46:18.200Z,14.26
2022-10-24T07:49:20.512Z,14.34
2022-10-24T07:52:22.643Z,14.34
2022-10-24T07:55:24.951Z,14.26
2022-10-24T07:58:27.808Z,14.12
2022-10-24T08:01:30.313Z,14.10
2022-10-24T08:04:32.692Z,14.06
2022-10-24T08:07:36.278Z,14.02
2022-10-24T08:10:38.669Z,14.08
2022-10-24T08:13:40.985Z,14.02
2022-10-24T08:16:43.342Z,14.11
2022-10-24T08:19:48.171Z,14.03
2022-10-24T08:22:50.483Z,14.05
2022-10-24T08:25:53.454Z,14.08
2022-10-24T08:28:57.705Z,14.13
2022-10-24T08:32:00.308Z,14.17
2022-10-24T08:35:02.691Z,14.08
2022-10-24T08:38:04.740Z,14.11
2022-10-24T08:41:09.845Z,14.20
2022-10-24T08:44:29.262Z,14.20
2022-10-24T08:47:44.683Z,14.33
2022-10-24T08:50:51.384Z,14.47
2022-10-24T08:53:58.342Z,14.54
2022-10-24T08:57:02.066Z,14.58
2022-10-24T09:00:22.251Z,14.54
2022-10-24T09:03:57.514Z,14.53
2022-10-24T09:07:01.500Z,14.45
2022-10-24T09:10:41.037Z,14.51
2022-10-24T09:13:43.331Z,14.39
2022-10-24T09:16:50.225Z,14.55
2022-10-24T09:19:57.465Z,14.61
2022-10-24T09:23:01.870Z,14.50
2022-10-24T09:26:13.805Z,14.50
2022-10-24T09:29:15.977Z,14.56
2022-10-24T09:32:24.338Z,14.55
2022-10-24T09:35:29.979Z,14.77
2022-10-24T09:38:35.342Z,14.74
2022-10-24T09:41:37.492Z,14.77
2022-10-24T09:44:44.005Z,14.59
2022-10-24T09:47:46.787Z,14.76
2022-10-24T09:50:51.489Z,14.59
2022-10-24T09:54:01.431Z,14.59
2022-10-24T09:57:11.857Z,14.72
2022-10-24T10:00:23.868Z,14.64
2022-10-24T10:03:26.745Z,14.64
2022-10-24T10:06:28.811Z,14.66
2022-10-24T10:09:31.706Z,14.82
2022-10-24T10:12:36.981Z,14.79
2022-10-24T10:15:46.692Z,14.85
2022-10-24T10:18:48.898Z,14.75
2022-10-24T10:22:00.508Z,14.83
2022-10-24T10:25:02.704Z,14.88
2022-10-24T10:28:19.494Z,14.90
2022-10-24T10:31:40.956Z,14.88
2022-10-24T10:34:48.634Z,14.91
2022-10-24T10:38:11.838Z,15.00
2022-10-24T10:41:41.195Z,14.92
2022-10-24T10:44:57.062Z,14.98
2022-10-24T10:48:32.855Z,15.08
2022-10-24T10:51:38.326Z,15.17
2022-10-24T10:55:07.918Z,15.28
2022-10-24T10:58:13.306Z,15.20
2022-10-24T11:01:31.531Z,15.22
2022-10-24T11:04:38.966Z,15.43
2022-10-24T11:07:46.276Z,15.27
2022-10-24T11:11:03.269Z,15.20
2022-10-24T11:14:35.584Z,15.30
2022-10-24T11:17:53.338Z,15.24
2022-10-24T11:21:05.852Z,15.37
2022-10-24T11:24:22.119Z,15.41
2022-10-24T11:27:31.673Z,15.54
2022-10-24T11:30:48.840Z,15.49
2022-10-24T11:34:12.423Z,15.38
2022-10-24T11:37:34.244Z,15.37
2022-10-24T11:40:39.978Z,15.38
2022-10-24T11:43:46.709Z,15.42
2022-10-24T11:46:56.191Z,15.51
2022-10-24T11:50:31.212Z,15.39
2022-10-24T11:53:33.839Z,15.35
2022-10-24T11:56:45.829Z,15.33
2022-10-24T11:59:52.078Z,15.27
2022-10-24T12:03:23.389Z,15.35
2022-10-24T12:06:42.248Z,15.48
2022-10-24T12:10:11.581Z,15.71
2022-10-24T12:13:35.214Z,15.34
2022-10-24T12:17:19.320Z,15.20
2022-10-24T12:20:24.626Z,15.38
2022-10-24T12:23:31.679Z,15.17
2022-10-24T12:26:35.614Z,15.15
2022-10-24T12:29:38.784Z,15.26
2022-10-24T12:32:46.115Z,15.49
2022-10-24T12:35:52.724Z,15.68
2022-10-24T12:38:55.035Z,15.63
2022-10-24T12:41:58.823Z,15.85
2022-10-24T12:45:01.059Z,15.77
2022-10-24T12:48:03.141Z,15.50
2022-10-24T12:51:31.475Z,15.39
2022-10-24T12:54:45.021Z,15.40
2022-10-24T12:57:47.731Z,15.47
2022-10-24T13:00:57.267Z,15.59
2022-10-24T13:04:36.866Z,15.60
2022-10-24T13:08:16.110Z,15.65
2022-10-24T13:11:52.251Z,15.78
2022-10-24T13:15:15.049Z,15.76
2022-10-24T13:18:38.858Z,15.69
2022-10-24T13:22:02.333Z,15.78
2022-10-24T13:25:36.949Z,15.71
2022-10-24T13:28:40.432Z,15.70
2022-10-24T13:31:46.218Z,15.72
2022-10-24T13:34:54.534Z,15.83
2022-10-24T13:38:00.598Z,15.74
2022-10-24T13:41:05.136Z,15.67
2022-10-24T13:44:28.893Z,15.69
2022-10-24T13:47:36.181Z,15.62
2022-10-24T13:50:56.429Z,15.53
2022-10-24T13:54:08.105Z,15.50
2022-10-24T13:57:37.421Z,15.41
2022-10-24T14:00:43.382Z,15.42
2022-10-24T14:03:48.033Z,15.49
2022-10-24T14:06:50.534Z,15.33
2022-10-24T14:09:58.596Z,15.39
2022-10-24T14:13:01.137Z,15.32
2022-10-24T14:16:07.275Z,15.27
2022-10-24T14:19:16.650Z,15.30
2022-10-24T14:22:25.046Z,15.31
2022-10-24T14:25:36.047Z,15.34
2022-10-24T14:28:50.589Z,15.40
2022-10-24T14:32:04.861Z,15.31
2022-10-24T14:35:12.126Z,15.29
2022-10-24T14:38:17.377Z,15.27
2022-10-24T14:41:29.970Z,15.23
2022-10-24T14:44:33.106Z,15.31
2022-10-24T14:47:38.967Z,15.33
2022-10-24T14:50:44.749Z,15.34
2022-10-24T14:53:50.059Z,15.31
2022-10-24T14:56:54.276Z,15.34
2022-10-24T14:59:58.920Z,15.28
2022-10-24T15:03:02.268Z,15.34
2022-10-24T15:06:10.223Z,15.28
2022-10-24T15:09:12.390Z,15.21
2022-10-24T15:12:14.678Z,15.24
2022-10-24T15:15:23.378Z,15.28
2022-10-24T15:18:43.528Z,15.22
2022-10-24T15:21:46.709Z,15.15
2022-10-24T15:24:52.164Z,15.14
2022-10-24T15:27:59.417Z,15.16
2022-10-24T15:31:01.830Z,15.25
2022-10-24T15:34:05.363Z,15.21
2022-10-24T15:37:18.063Z,15.23
2022-10-24T15:40:27.323Z,15.22
